sensor_id;sensor_type;location;lat;lon;timestamp;P1;durP1;ratioP1;P2;durP2;ratioP2
44746;SDS011;30472;49.490;10.972;2022-08-23T00:01:34;6.97;;;6.30;;
44746;SDS011;30472;49.490;10.972;2022-08-23T00:04:04;10.87;;;7.03;;
44746;SDS011;30472;49.490;10.972;2022-08-23T00:06:32;7.90;;;6.87;;
44746;SDS011;30472;49.490;10.972;2022-08-23T00:08:59;7.67;;;6.70;;
44746;SDS011;30472;49.490;10.972;2022-08-23T00:11:30;7.63;;;6.90;;
44746;SDS011;30472;49.490;10.972;2022-08-23T00:13:59;9.00;;;6.90;;
44746;SDS011;30472;49.490;10.972;2022-08-23T00:16:32;9.23;;;7.50;;
44746;SDS011;30472;49.490;10.972;2022-08-23T00:18:59;8.07;;;6.60;;
44746;SDS011;30472;49.490;10.972;2022-08-23T00:21:25;9.87;;;6.67;;
44746;SDS011;30472;49.490;10.972;2022-08-23T00:23:51;9.67;;;6.27;;
44746;SDS011;30472;49.490;10.972;2022-08-23T00:26:17;13.30;;;7.13;;
44746;SDS011;30472;49.490;10.972;2022-08-23T00:28:44;7.33;;;6.63;;
44746;SDS011;30472;49.490;10.972;2022-08-23T00:31:10;8.27;;;7.37;;
44746;SDS011;30472;49.490;10.972;2022-08-23T00:33:35;9.83;;;7.20;;
44746;SDS011;30472;49.490;10.972;2022-08-23T00:36:01;7.63;;;6.80;;
44746;SDS011;30472;49.490;10.972;2022-08-23T00:38:27;7.57;;;6.60;;
44746;SDS011;30472;49.490;10.972;2022-08-23T00:40:52;9.07;;;6.93;;
44746;SDS011;30472;49.490;10.972;2022-08-23T00:43:21;8.13;;;6.23;;
44746;SDS011;30472;49.490;10.972;2022-08-23T00:49:11;7.57;;;6.70;;
44746;SDS011;30472;49.490;10.972;2022-08-23T00:51:50;9.17;;;7.63;;
44746;SDS011;30472;49.490;10.972;2022-08-23T00:54:23;8.37;;;7.43;;
44746;SDS011;30472;49.490;10.972;2022-08-23T00:56:51;6.57;;;5.93;;
44746;SDS011;30472;49.490;10.972;2022-08-23T00:59:18;7.30;;;6.13;;
44746;SDS011;30472;49.490;10.972;2022-08-23T01:01:44;7.87;;;6.93;;
44746;SDS011;30472;49.490;10.972;2022-08-23T01:04:10;9.60;;;8.80;;
44746;SDS011;30472;49.490;10.972;2022-08-23T01:06:40;14.97;;;8.00;;
44746;SDS011;30472;49.490;10.972;2022-08-23T01:09:11;9.13;;;8.23;;
44746;SDS011;30472;49.490;10.972;2022-08-23T01:11:41;10.20;;;8.70;;
44746;SDS011;30472;49.490;10.972;2022-08-23T01:14:14;9.37;;;8.47;;
44746;SDS011;30472;49.490;10.972;2022-08-23T01:17:03;8.80;;;7.90;;
44746;SDS011;30472;49.490;10.972;2022-08-23T01:19:37;8.90;;;7.63;;
44746;SDS011;30472;49.490;10.972;2022-08-23T01:24:41;9.37;;;8.47;;
44746;SDS011;30472;49.490;10.972;2022-08-23T01:27:08;9.77;;;8.77;;
44746;SDS011;30472;49.490;10.972;2022-08-23T01:29:36;9.97;;;8.40;;
44746;SDS011;30472;49.490;10.972;2022-08-23T01:32:02;10.23;;;9.23;;
44746;SDS011;30472;49.490;10.972;2022-08-23T01:34:29;8.83;;;7.57;;
44746;SDS011;30472;49.490;10.972;2022-08-23T01:36:55;9.97;;;8.57;;
44746;SDS011;30472;49.490;10.972;2022-08-23T01:39:22;10.63;;;9.00;;
44746;SDS011;30472;49.490;10.972;2022-08-23T01:41:48;10.07;;;9.07;;
44746;SDS011;30472;49.490;10.972;2022-08-23T01:44:15;10.80;;;8.77;;
44746;SDS011;30472;49.490;10.972;2022-08-23T01:46:42;12.53;;;9.50;;
44746;SDS011;30472;49.490;10.972;2022-08-23T01:49:09;11.03;;;8.57;;
44746;SDS011;30472;49.490;10.972;2022-08-23T01:51:36;10.50;;;9.40;;
44746;SDS011;30472;49.490;10.972;2022-08-23T01:54:02;9.87;;;8.63;;
44746;SDS011;30472;49.490;10.972;2022-08-23T01:56:28;11.17;;;8.03;;
44746;SDS011;30472;49.490;10.972;2022-08-23T01:58:56;9.60;;;8.70;;
44746;SDS011;30472;49.490;10.972;2022-08-23T02:01:22;12.67;;;11.33;;
44746;SDS011;30472;49.490;10.972;2022-08-23T02:03:48;24.93;;;18.20;;
44746;SDS011;30472;49.490;10.972;2022-08-23T02:06:13;19.03;;;14.70;;
44746;SDS011;30472;49.490;10.972;2022-08-23T02:08:39;15.37;;;11.57;;
44746;SDS011;30472;49.490;10.972;2022-08-23T02:11:23;12.57;;;11.07;;
44746;SDS011;30472;49.490;10.972;2022-08-23T02:13:50;10.40;;;9.37;;
44746;SDS011;30472;49.490;10.972;2022-08-23T02:16:22;11.07;;;9.97;;
44746;SDS011;30472;49.490;10.972;2022-08-23T02:19:09;11.73;;;9.90;;
44746;SDS011;30472;49.490;10.972;2022-08-23T02:21:36;10.70;;;8.97;;
44746;SDS011;30472;49.490;10.972;2022-08-23T02:24:03;9.43;;;8.53;;
44746;SDS011;30472;49.490;10.972;2022-08-23T02:26:33;10.90;;;9.30;;
44746;SDS011;30472;49.490;10.972;2022-08-23T02:28:59;10.33;;;8.83;;
44746;SDS011;30472;49.490;10.972;2022-08-23T02:31:25;10.30;;;8.33;;
44746;SDS011;30472;49.490;10.972;2022-08-23T02:33:50;13.87;;;9.10;;
44746;SDS011;30472;49.490;10.972;2022-08-23T02:36:16;12.73;;;9.97;;
44746;SDS011;30472;49.490;10.972;2022-08-23T02:38:41;8.93;;;8.03;;
44746;SDS011;30472;49.490;10.972;2022-08-23T02:41:07;9.43;;;8.57;;
44746;SDS011;30472;49.490;10.972;2022-08-23T02:43:33;42.50;;;29.03;;
44746;SDS011;30472;49.490;10.972;2022-08-23T02:46:01;36.53;;;26.13;;
44746;SDS011;30472;49.490;10.972;2022-08-23T02:48:31;26.07;;;19.67;;
44746;SDS011;30472;49.490;10.972;2022-08-23T02:51:00;32.63;;;21.73;;
44746;SDS011;30472;49.490;10.972;2022-08-23T02:53:28;26.63;;;19.57;;
44746;SDS011;30472;49.490;10.972;2022-08-23T02:55:54;22.00;;;14.90;;
44746;SDS011;30472;49.490;10.972;2022-08-23T02:58:19;13.77;;;12.53;;
44746;SDS011;30472;49.490;10.972;2022-08-23T03:00:46;11.97;;;10.70;;
44746;SDS011;30472;49.490;10.972;2022-08-23T03:03:12;15.30;;;11.03;;
44746;SDS011;30472;49.490;10.972;2022-08-23T03:05:38;14.13;;;10.70;;
44746;SDS011;30472;49.490;10.972;2022-08-23T03:08:03;12.97;;;11.10;;
44746;SDS011;30472;49.490;10.972;2022-08-23T03:10:29;12.27;;;10.93;;
44746;SDS011;30472;49.490;10.972;2022-08-23T03:12:55;12.43;;;11.17;;
44746;SDS011;30472;49.490;10.972;2022-08-23T03:15:21;13.97;;;11.23;;
44746;SDS011;30472;49.490;10.972;2022-08-23T03:17:47;12.03;;;10.83;;
44746;SDS011;30472;49.490;10.972;2022-08-23T03:20:13;11.37;;;10.10;;
44746;SDS011;30472;49.490;10.972;2022-08-23T03:22:39;12.93;;;11.23;;
44746;SDS011;30472;49.490;10.972;2022-08-23T03:25:05;14.00;;;11.97;;
44746;SDS011;30472;49.490;10.972;2022-08-23T03:27:31;12.30;;;11.10;;
44746;SDS011;30472;49.490;10.972;2022-08-23T03:29:57;11.83;;;10.63;;
44746;SDS011;30472;49.490;10.972;2022-08-23T03:32:22;12.33;;;11.23;;
44746;SDS011;30472;49.490;10.972;2022-08-23T03:34:48;12.97;;;11.60;;
44746;SDS011;30472;49.490;10.972;2022-08-23T03:37:13;13.90;;;12.27;;
44746;SDS011;30472;49.490;10.972;2022-08-23T03:39:40;10.50;;;9.43;;
44746;SDS011;30472;49.490;10.972;2022-08-23T03:42:06;12.77;;;10.57;;
44746;SDS011;30472;49.490;10.972;2022-08-23T03:44:31;12.57;;;11.30;;
44746;SDS011;30472;49.490;10.972;2022-08-23T03:46:57;14.03;;;12.40;;
44746;SDS011;30472;49.490;10.972;2022-08-23T03:49:23;14.23;;;11.03;;
44746;SDS011;30472;49.490;10.972;2022-08-23T03:51:48;12.07;;;10.97;;
44746;SDS011;30472;49.490;10.972;2022-08-23T03:54:14;12.63;;;10.53;;
44746;SDS011;30472;49.490;10.972;2022-08-23T03:56:49;12.30;;;11.07;;
44746;SDS011;30472;49.490;10.972;2022-08-23T03:59:27;10.93;;;9.93;;
44746;SDS011;30472;49.490;10.972;2022-08-23T04:01:53;12.80;;;11.30;;
44746;SDS011;30472;49.490;10.972;2022-08-23T04:04:19;13.97;;;12.43;;
44746;SDS011;30472;49.490;10.972;2022-08-23T04:06:45;12.33;;;11.23;;
44746;SDS011;30472;49.490;10.972;2022-08-23T04:09:11;13.23;;;11.63;;
44746;SDS011;30472;49.490;10.972;2022-08-23T04:11:38;12.70;;;11.47;;
44746;SDS011;30472;49.490;10.972;2022-08-23T04:14:04;12.40;;;11.20;;
44746;SDS011;30472;49.490;10.972;2022-08-23T04:16:30;17.73;;;13.70;;
44746;SDS011;30472;49.490;10.972;2022-08-23T04:19:01;12.17;;;10.97;;
44746;SDS011;30472;49.490;10.972;2022-08-23T04:21:31;11.77;;;10.57;;
44746;SDS011;30472;49.490;10.972;2022-08-23T04:23:57;13.50;;;12.23;;
44746;SDS011;30472;49.490;10.972;2022-08-23T04:26:23;14.10;;;11.67;;
44746;SDS011;30472;49.490;10.972;2022-08-23T04:28:48;11.37;;;10.37;;
44746;SDS011;30472;49.490;10.972;2022-08-23T04:31:14;14.13;;;11.20;;
44746;SDS011;30472;49.490;10.972;2022-08-23T04:33:41;12.30;;;11.00;;
44746;SDS011;30472;49.490;10.972;2022-08-23T04:36:06;10.93;;;9.87;;
44746;SDS011;30472;49.490;10.972;2022-08-23T04:38:32;12.37;;;11.17;;
44746;SDS011;30472;49.490;10.972;2022-08-23T04:40:58;12.53;;;11.23;;
44746;SDS011;30472;49.490;10.972;2022-08-23T04:43:42;14.20;;;11.17;;
44746;SDS011;30472;49.490;10.972;2022-08-23T04:46:08;13.03;;;11.67;;
44746;SDS011;30472;49.490;10.972;2022-08-23T04:48:34;12.83;;;11.53;;
44746;SDS011;30472;49.490;10.972;2022-08-23T04:51:00;14.43;;;10.70;;
44746;SDS011;30472;49.490;10.972;2022-08-23T04:53:26;12.90;;;11.73;;
44746;SDS011;30472;49.490;10.972;2022-08-23T04:55:54;12.13;;;10.77;;
44746;SDS011;30472;49.490;10.972;2022-08-23T04:58:20;14.07;;;11.53;;
44746;SDS011;30472;49.490;10.972;2022-08-23T05:00:50;12.83;;;11.60;;
44746;SDS011;30472;49.490;10.972;2022-08-23T05:03:16;15.30;;;11.60;;
44746;SDS011;30472;49.490;10.972;2022-08-23T05:05:41;12.70;;;11.47;;
44746;SDS011;30472;49.490;10.972;2022-08-23T05:08:08;12.17;;;10.97;;
44746;SDS011;30472;49.490;10.972;2022-08-23T05:10:33;11.30;;;10.13;;
44746;SDS011;30472;49.490;10.972;2022-08-23T05:12:59;15.40;;;11.07;;
44746;SDS011;30472;49.490;10.972;2022-08-23T05:15:24;15.20;;;9.77;;
44746;SDS011;30472;49.490;10.972;2022-08-23T05:17:50;13.33;;;10.73;;
44746;SDS011;30472;49.490;10.972;2022-08-23T05:20:16;12.03;;;10.60;;
44746;SDS011;30472;49.490;10.972;2022-08-23T05:22:42;13.30;;;10.90;;
44746;SDS011;30472;49.490;10.972;2022-08-23T05:25:07;13.47;;;9.60;;
44746;SDS011;30472;49.490;10.972;2022-08-23T05:27:33;14.43;;;10.13;;
44746;SDS011;30472;49.490;10.972;2022-08-23T05:29:59;15.67;;;10.60;;
44746;SDS011;30472;49.490;10.972;2022-08-23T05:32:25;15.00;;;11.13;;
44746;SDS011;30472;49.490;10.972;2022-08-23T05:34:51;11.47;;;10.33;;
44746;SDS011;30472;49.490;10.972;2022-08-23T05:37:16;10.97;;;9.97;;
44746;SDS011;30472;49.490;10.972;2022-08-23T05:39:42;15.90;;;10.20;;
44746;SDS011;30472;49.490;10.972;2022-08-23T05:42:09;11.43;;;10.20;;
44746;SDS011;30472;49.490;10.972;2022-08-23T05:44:36;11.90;;;10.80;;
44746;SDS011;30472;49.490;10.972;2022-08-23T05:47:03;11.10;;;10.00;;
44746;SDS011;30472;49.490;10.972;2022-08-23T05:49:30;13.10;;;9.80;;
44746;SDS011;30472;49.490;10.972;2022-08-23T05:51:56;10.60;;;9.57;;
44746;SDS011;30472;49.490;10.972;2022-08-23T05:54:22;12.43;;;9.63;;
44746;SDS011;30472;49.490;10.972;2022-08-23T05:56:47;10.60;;;9.50;;
44746;SDS011;30472;49.490;10.972;2022-08-23T05:59:14;13.37;;;9.80;;
44746;SDS011;30472;49.490;10.972;2022-08-23T06:01:41;10.13;;;9.03;;
44746;SDS011;30472;49.490;10.972;2022-08-23T06:04:08;15.90;;;10.57;;
44746;SDS011;30472;49.490;10.972;2022-08-23T06:06:36;12.50;;;10.83;;
44746;SDS011;30472;49.490;10.972;2022-08-23T06:09:03;12.80;;;10.77;;
44746;SDS011;30472;49.490;10.972;2022-08-23T06:11:30;11.57;;;10.13;;
44746;SDS011;30472;49.490;10.972;2022-08-23T06:13:57;13.57;;;10.20;;
44746;SDS011;30472;49.490;10.972;2022-08-23T06:16:26;13.67;;;10.37;;
44746;SDS011;30472;49.490;10.972;2022-08-23T06:18:58;10.93;;;9.93;;
44746;SDS011;30472;49.490;10.972;2022-08-23T06:21:28;12.23;;;10.17;;
44746;SDS011;30472;49.490;10.972;2022-08-23T06:23:55;11.87;;;10.50;;
44746;SDS011;30472;49.490;10.972;2022-08-23T06:26:22;15.30;;;10.63;;
44746;SDS011;30472;49.490;10.972;2022-08-23T06:29:09;12.37;;;9.90;;
44746;SDS011;30472;49.490;10.972;2022-08-23T06:31:39;12.83;;;11.33;;
44746;SDS011;30472;49.490;10.972;2022-08-23T06:34:11;11.43;;;10.00;;
44746;SDS011;30472;49.490;10.972;2022-08-23T06:37:07;11.60;;;9.10;;
44746;SDS011;30472;49.490;10.972;2022-08-23T06:39:36;10.90;;;9.57;;
44746;SDS011;30472;49.490;10.972;2022-08-23T06:42:07;12.83;;;10.93;;
44746;SDS011;30472;49.490;10.972;2022-08-23T06:44:35;12.70;;;10.07;;
44746;SDS011;30472;49.490;10.972;2022-08-23T06:47:01;14.90;;;10.47;;
44746;SDS011;30472;49.490;10.972;2022-08-23T06:49:28;11.43;;;8.77;;
44746;SDS011;30472;49.490;10.972;2022-08-23T06:51:54;9.80;;;8.07;;
44746;SDS011;30472;49.490;10.972;2022-08-23T06:54:24;6.80;;;6.10;;
44746;SDS011;30472;49.490;10.972;2022-08-23T06:56:51;10.23;;;5.37;;
44746;SDS011;30472;49.490;10.972;2022-08-23T06:59:18;9.20;;;5.17;;
44746;SDS011;30472;49.490;10.972;2022-08-23T07:01:46;8.00;;;4.18;;
44746;SDS011;30472;49.490;10.972;2022-08-23T07:04:25;4.63;;;3.70;;
44746;SDS011;30472;49.490;10.972;2022-08-23T07:06:53;7.13;;;4.30;;
44746;SDS011;30472;49.490;10.972;2022-08-23T07:09:20;6.03;;;3.97;;
44746;SDS011;30472;49.490;10.972;2022-08-23T07:11:46;5.65;;;4.07;;
44746;SDS011;30472;49.490;10.972;2022-08-23T07:14:13;5.45;;;3.75;;
44746;SDS011;30472;49.490;10.972;2022-08-23T07:16:49;6.53;;;3.60;;
44746;SDS011;30472;49.490;10.972;2022-08-23T07:19:17;5.55;;;3.47;;
44746;SDS011;30472;49.490;10.972;2022-08-23T07:21:44;6.97;;;3.50;;
44746;SDS011;30472;49.490;10.972;2022-08-23T07:24:11;5.50;;;3.42;;
44746;SDS011;30472;49.490;10.972;2022-08-23T07:26:38;8.18;;;3.13;;
44746;SDS011;30472;49.490;10.972;2022-08-23T07:29:05;5.38;;;3.38;;
44746;SDS011;30472;49.490;10.972;2022-08-23T07:31:32;6.35;;;3.60;;
44746;SDS011;30472;49.490;10.972;2022-08-23T07:34:00;6.22;;;3.20;;
44746;SDS011;30472;49.490;10.972;2022-08-23T07:36:28;4.72;;;2.88;;
44746;SDS011;30472;49.490;10.972;2022-08-23T07:38:55;6.20;;;2.97;;
44746;SDS011;30472;49.490;10.972;2022-08-23T07:41:22;4.25;;;3.05;;
44746;SDS011;30472;49.490;10.972;2022-08-23T07:43:49;7.85;;;3.13;;
44746;SDS011;30472;49.490;10.972;2022-08-23T07:46:15;5.13;;;3.03;;
44746;SDS011;30472;49.490;10.972;2022-08-23T07:48:41;3.20;;;2.83;;
44746;SDS011;30472;49.490;10.972;2022-08-23T07:51:08;3.65;;;2.92;;
44746;SDS011;30472;49.490;10.972;2022-08-23T07:53:36;6.20;;;3.17;;
44746;SDS011;30472;49.490;10.972;2022-08-23T07:56:03;5.32;;;2.90;;
44746;SDS011;30472;49.490;10.972;2022-08-23T07:58:30;5.50;;;3.22;;
44746;SDS011;30472;49.490;10.972;2022-08-23T08:00:55;4.95;;;2.75;;
44746;SDS011;30472;49.490;10.972;2022-08-23T08:03:21;3.40;;;2.67;;
44746;SDS011;30472;49.490;10.972;2022-08-23T08:05:46;4.82;;;3.40;;
44746;SDS011;30472;49.490;10.972;2022-08-23T08:08:12;5.05;;;2.80;;
44746;SDS011;30472;49.490;10.972;2022-08-23T08:10:39;3.90;;;3.13;;
44746;SDS011;30472;49.490;10.972;2022-08-23T08:13:06;4.47;;;2.95;;
44746;SDS011;30472;49.490;10.972;2022-08-23T08:15:32;4.57;;;2.92;;
44746;SDS011;30472;49.490;10.972;2022-08-23T08:17:58;5.18;;;2.67;;
44746;SDS011;30472;49.490;10.972;2022-08-23T08:20:25;4.07;;;2.70;;
44746;SDS011;30472;49.490;10.972;2022-08-23T08:22:52;4.38;;;2.80;;
44746;SDS011;30472;49.490;10.972;2022-08-23T08:25:18;6.47;;;2.85;;
44746;SDS011;30472;49.490;10.972;2022-08-23T08:27:44;5.53;;;2.58;;
44746;SDS011;30472;49.490;10.972;2022-08-23T08:30:10;4.68;;;3.08;;
44746;SDS011;30472;49.490;10.972;2022-08-23T08:32:37;5.20;;;3.08;;
44746;SDS011;30472;49.490;10.972;2022-08-23T08:35:03;4.88;;;2.85;;
44746;SDS011;30472;49.490;10.972;2022-08-23T08:37:29;9.05;;;3.00;;
44746;SDS011;30472;49.490;10.972;2022-08-23T08:39:56;3.88;;;2.78;;
44746;SDS011;30472;49.490;10.972;2022-08-23T08:44:57;3.25;;;2.40;;
44746;SDS011;30472;49.490;10.972;2022-08-23T08:48:09;4.85;;;2.50;;
44746;SDS011;30472;49.490;10.972;2022-08-23T08:55:32;4.07;;;2.40;;
44746;SDS011;30472;49.490;10.972;2022-08-23T08:58:03;4.28;;;2.30;;
44746;SDS011;30472;49.490;10.972;2022-08-23T09:00:31;3.63;;;2.40;;
44746;SDS011;30472;49.490;10.972;2022-08-23T09:03:02;2.83;;;2.20;;
44746;SDS011;30472;49.490;10.972;2022-08-23T09:05:35;3.78;;;2.20;;
44746;SDS011;30472;49.490;10.972;2022-08-23T09:10:44;2.97;;;2.17;;
44746;SDS011;30472;49.490;10.972;2022-08-23T09:18:35;3.47;;;2.28;;
44746;SDS011;30472;49.490;10.972;2022-08-23T09:21:02;4.13;;;2.20;;
44746;SDS011;30472;49.490;10.972;2022-08-23T09:23:34;3.65;;;2.13;;
44746;SDS011;30472;49.490;10.972;2022-08-23T09:26:14;3.28;;;2.10;;
44746;SDS011;30472;49.490;10.972;2022-08-23T09:28:52;2.95;;;2.00;;
44746;SDS011;30472;49.490;10.972;2022-08-23T09:34:03;2.33;;;2.10;;
44746;SDS011;30472;49.490;10.972;2022-08-23T09:36:36;4.22;;;2.13;;
44746;SDS011;30472;49.490;10.972;2022-08-23T09:39:07;3.60;;;1.92;;
44746;SDS011;30472;49.490;10.972;2022-08-23T09:41:48;2.83;;;2.00;;
44746;SDS011;30472;49.490;10.972;2022-08-23T09:44:28;1.88;;;1.35;;
44746;SDS011;30472;49.490;10.972;2022-08-23T09:47:04;4.97;;;1.60;;
44746;SDS011;30472;49.490;10.972;2022-08-23T09:49:30;2.10;;;1.50;;
44746;SDS011;30472;49.490;10.972;2022-08-23T09:52:00;2.35;;;1.40;;
44746;SDS011;30472;49.490;10.972;2022-08-23T09:54:36;3.08;;;1.58;;
44746;SDS011;30472;49.490;10.972;2022-08-23T09:57:05;2.17;;;1.42;;
44746;SDS011;30472;49.490;10.972;2022-08-23T09:59:40;2.95;;;1.77;;
44746;SDS011;30472;49.490;10.972;2022-08-23T10:05:18;2.75;;;1.60;;
44746;SDS011;30472;49.490;10.972;2022-08-23T10:08:05;5.93;;;1.50;;
44746;SDS011;30472;49.490;10.972;2022-08-23T10:10:49;2.95;;;1.50;;
44746;SDS011;30472;49.490;10.972;2022-08-23T10:13:17;4.05;;;1.45;;
44746;SDS011;30472;49.490;10.972;2022-08-23T10:21:40;2.72;;;1.58;;
44746;SDS011;30472;49.490;10.972;2022-08-23T10:25:13;1.98;;;1.67;;
44746;SDS011;30472;49.490;10.972;2022-08-23T10:30:24;1.90;;;1.45;;
44746;SDS011;30472;49.490;10.972;2022-08-23T10:35:48;1.73;;;1.27;;
44746;SDS011;30472;49.490;10.972;2022-08-23T10:38:35;2.45;;;1.20;;
44746;SDS011;30472;49.490;10.972;2022-08-23T10:41:17;2.10;;;1.30;;
44746;SDS011;30472;49.490;10.972;2022-08-23T10:44:10;3.83;;;1.30;;
44746;SDS011;30472;49.490;10.972;2022-08-23T10:49:34;3.92;;;0.90;;
44746;SDS011;30472;49.490;10.972;2022-08-23T10:52:04;2.95;;;1.20;;
44746;SDS011;30472;49.490;10.972;2022-08-23T10:54:39;3.17;;;1.20;;
44746;SDS011;30472;49.490;10.972;2022-08-23T10:57:23;2.08;;;0.80;;
44746;SDS011;30472;49.490;10.972;2022-08-23T10:59:55;1.08;;;0.70;;
44746;SDS011;30472;49.490;10.972;2022-08-23T11:02:40;1.00;;;0.70;;
44746;SDS011;30472;49.490;10.972;2022-08-23T11:05:21;2.20;;;0.88;;
44746;SDS011;30472;49.490;10.972;2022-08-23T11:08:12;0.85;;;0.77;;
44746;SDS011;30472;49.490;10.972;2022-08-23T11:10:58;1.33;;;0.95;;
44746;SDS011;30472;49.490;10.972;2022-08-23T11:13:24;1.17;;;0.93;;
44746;SDS011;30472;49.490;10.972;2022-08-23T11:16:04;3.97;;;0.77;;
44746;SDS011;30472;49.490;10.972;2022-08-23T11:18:44;0.95;;;0.80;;
44746;SDS011;30472;49.490;10.972;2022-08-23T11:29:42;2.63;;;1.15;;
44746;SDS011;30472;49.490;10.972;2022-08-23T11:35:07;2.25;;;1.23;;
44746;SDS011;30472;49.490;10.972;2022-08-23T11:40:37;1.35;;;0.98;;
44746;SDS011;30472;49.490;10.972;2022-08-23T11:43:20;2.72;;;0.95;;
44746;SDS011;30472;49.490;10.972;2022-08-23T11:54:13;2.45;;;1.15;;
44746;SDS011;30472;49.490;10.972;2022-08-23T11:59:33;3.70;;;1.00;;
44746;SDS011;30472;49.490;10.972;2022-08-23T12:04:59;1.45;;;1.10;;
44746;SDS011;30472;49.490;10.972;2022-08-23T12:10:56;3.75;;;1.23;;
44746;SDS011;30472;49.490;10.972;2022-08-23T12:18:29;3.78;;;1.17;;
44746;SDS011;30472;49.490;10.972;2022-08-23T12:20:58;3.60;;;1.40;;
44746;SDS011;30472;49.490;10.972;2022-08-23T12:23:28;1.20;;;1.10;;
44746;SDS011;30472;49.490;10.972;2022-08-23T12:26:12;1.50;;;1.23;;
44746;SDS011;30472;49.490;10.972;2022-08-23T12:28:48;1.40;;;1.30;;
44746;SDS011;30472;49.490;10.972;2022-08-23T12:38:09;1.95;;;1.25;;
44746;SDS011;30472;49.490;10.972;2022-08-23T12:40:43;2.70;;;1.20;;
44746;SDS011;30472;49.490;10.972;2022-08-23T12:43:18;2.35;;;1.30;;
44746;SDS011;30472;49.490;10.972;2022-08-23T12:45:47;2.25;;;1.30;;
44746;SDS011;30472;49.490;10.972;2022-08-23T12:48:16;4.85;;;1.20;;
44746;SDS011;30472;49.490;10.972;2022-08-23T12:50:50;3.28;;;1.40;;
44746;SDS011;30472;49.490;10.972;2022-08-23T12:53:45;1.77;;;1.17;;
44746;SDS011;30472;49.490;10.972;2022-08-23T12:56:25;2.63;;;1.00;;
44746;SDS011;30472;49.490;10.972;2022-08-23T12:58:54;1.20;;;1.00;;
44746;SDS011;30472;49.490;10.972;2022-08-23T13:01:24;2.20;;;1.20;;
44746;SDS011;30472;49.490;10.972;2022-08-23T13:03:54;1.60;;;1.10;;
44746;SDS011;30472;49.490;10.972;2022-08-23T13:06:26;2.70;;;1.15;;
44746;SDS011;30472;49.490;10.972;2022-08-23T13:08:58;1.65;;;1.10;;
44746;SDS011;30472;49.490;10.972;2022-08-23T13:11:34;3.00;;;1.30;;
44746;SDS011;30472;49.490;10.972;2022-08-23T13:16:46;2.95;;;1.10;;
44746;SDS011;30472;49.490;10.972;2022-08-23T13:21:40;2.63;;;1.20;;
44746;SDS011;30472;49.490;10.972;2022-08-23T13:24:26;2.80;;;1.20;;
44746;SDS011;30472;49.490;10.972;2022-08-23T13:37:57;0.90;;;0.82;;
44746;SDS011;30472;49.490;10.972;2022-08-23T13:40:50;3.40;;;1.20;;
44746;SDS011;30472;49.490;10.972;2022-08-23T13:46:11;1.52;;;0.80;;
44746;SDS011;30472;49.490;10.972;2022-08-23T13:53:52;2.45;;;0.90;;
44746;SDS011;30472;49.490;10.972;2022-08-23T13:56:19;1.63;;;1.08;;
44746;SDS011;30472;49.490;10.972;2022-08-23T13:58:57;1.65;;;1.08;;
44746;SDS011;30472;49.490;10.972;2022-08-23T14:01:25;1.20;;;1.10;;
44746;SDS011;30472;49.490;10.972;2022-08-23T14:03:52;1.10;;;0.90;;
44746;SDS011;30472;49.490;10.972;2022-08-23T14:06:18;2.05;;;1.08;;
44746;SDS011;30472;49.490;10.972;2022-08-23T14:08:43;1.45;;;0.90;;
44746;SDS011;30472;49.490;10.972;2022-08-23T14:11:09;1.10;;;0.98;;
44746;SDS011;30472;49.490;10.972;2022-08-23T14:13:38;1.40;;;0.82;;
44746;SDS011;30472;49.490;10.972;2022-08-23T14:16:05;1.90;;;0.80;;
44746;SDS011;30472;49.490;10.972;2022-08-23T14:18:32;3.58;;;1.00;;
44746;SDS011;30472;49.490;10.972;2022-08-23T14:20:58;2.13;;;0.90;;
44746;SDS011;30472;49.490;10.972;2022-08-23T14:23:24;1.40;;;0.88;;
44746;SDS011;30472;49.490;10.972;2022-08-23T14:25:51;2.00;;;1.05;;
44746;SDS011;30472;49.490;10.972;2022-08-23T14:28:20;2.17;;;0.90;;
44746;SDS011;30472;49.490;10.972;2022-08-23T14:30:49;2.67;;;0.90;;
44746;SDS011;30472;49.490;10.972;2022-08-23T14:33:15;1.95;;;0.98;;
44746;SDS011;30472;49.490;10.972;2022-08-23T14:35:40;1.58;;;1.00;;
44746;SDS011;30472;49.490;10.972;2022-08-23T14:38:07;1.02;;;0.90;;
44746;SDS011;30472;49.490;10.972;2022-08-23T14:40:34;1.05;;;0.60;;
44746;SDS011;30472;49.490;10.972;2022-08-23T14:43:00;1.35;;;0.93;;
44746;SDS011;30472;49.490;10.972;2022-08-23T14:45:26;2.30;;;0.88;;
44746;SDS011;30472;49.490;10.972;2022-08-23T14:47:52;2.05;;;1.05;;
44746;SDS011;30472;49.490;10.972;2022-08-23T14:50:17;1.08;;;0.98;;
44746;SDS011;30472;49.490;10.972;2022-08-23T14:52:44;1.95;;;1.00;;
44746;SDS011;30472;49.490;10.972;2022-08-23T14:55:11;1.35;;;0.80;;
44746;SDS011;30472;49.490;10.972;2022-08-23T14:57:37;0.80;;;0.80;;
44746;SDS011;30472;49.490;10.972;2022-08-23T15:00:04;0.80;;;0.80;;
44746;SDS011;30472;49.490;10.972;2022-08-23T15:02:31;1.35;;;0.82;;
44746;SDS011;30472;49.490;10.972;2022-08-23T15:05:00;1.10;;;0.68;;
44746;SDS011;30472;49.490;10.972;2022-08-23T15:07:26;1.00;;;0.80;;
44746;SDS011;30472;49.490;10.972;2022-08-23T15:09:51;1.73;;;1.23;;
44746;SDS011;30472;49.490;10.972;2022-08-23T15:12:20;0.93;;;0.85;;
44746;SDS011;30472;49.490;10.972;2022-08-23T15:14:46;1.10;;;1.00;;
44746;SDS011;30472;49.490;10.972;2022-08-23T15:17:12;1.10;;;0.80;;
44746;SDS011;30472;49.490;10.972;2022-08-23T15:19:38;1.45;;;0.90;;
44746;SDS011;30472;49.490;10.972;2022-08-23T15:22:03;1.02;;;0.82;;
44746;SDS011;30472;49.490;10.972;2022-08-23T15:24:29;1.25;;;0.88;;
44746;SDS011;30472;49.490;10.972;2022-08-23T15:26:57;2.45;;;1.00;;
44746;SDS011;30472;49.490;10.972;2022-08-23T15:29:25;1.15;;;0.82;;
44746;SDS011;30472;49.490;10.972;2022-08-23T15:31:52;2.50;;;1.20;;
44746;SDS011;30472;49.490;10.972;2022-08-23T15:34:18;0.95;;;0.90;;
44746;SDS011;30472;49.490;10.972;2022-08-23T15:36:44;2.85;;;0.98;;
44746;SDS011;30472;49.490;10.972;2022-08-23T15:39:09;1.98;;;1.00;;
44746;SDS011;30472;49.490;10.972;2022-08-23T15:41:35;1.67;;;0.88;;
44746;SDS011;30472;49.490;10.972;2022-08-23T15:44:01;1.65;;;1.27;;
44746;SDS011;30472;49.490;10.972;2022-08-23T15:46:26;1.30;;;1.10;;
44746;SDS011;30472;49.490;10.972;2022-08-23T15:51:20;1.40;;;1.10;;
44746;SDS011;30472;49.490;10.972;2022-08-23T15:53:46;1.15;;;1.02;;
44746;SDS011;30472;49.490;10.972;2022-08-23T15:56:13;1.02;;;0.98;;
44746;SDS011;30472;49.490;10.972;2022-08-23T15:58:42;1.52;;;1.00;;
44746;SDS011;30472;49.490;10.972;2022-08-23T16:01:08;2.53;;;1.05;;
44746;SDS011;30472;49.490;10.972;2022-08-23T16:03:34;3.78;;;1.20;;
44746;SDS011;30472;49.490;10.972;2022-08-23T16:06:02;1.05;;;0.88;;
44746;SDS011;30472;49.490;10.972;2022-08-23T16:08:29;2.55;;;0.90;;
44746;SDS011;30472;49.490;10.972;2022-08-23T16:10:58;1.88;;;1.13;;
44746;SDS011;30472;49.490;10.972;2022-08-23T16:13:23;1.15;;;1.00;;
44746;SDS011;30472;49.490;10.972;2022-08-23T16:15:50;2.10;;;1.27;;
44746;SDS011;30472;49.490;10.972;2022-08-23T16:18:16;2.08;;;1.17;;
44746;SDS011;30472;49.490;10.972;2022-08-23T16:20:42;1.15;;;0.98;;
44746;SDS011;30472;49.490;10.972;2022-08-23T16:23:08;1.25;;;0.90;;
44746;SDS011;30472;49.490;10.972;2022-08-23T16:25:34;1.15;;;0.88;;
44746;SDS011;30472;49.490;10.972;2022-08-23T16:28:00;2.78;;;1.30;;
44746;SDS011;30472;49.490;10.972;2022-08-23T16:30:26;1.27;;;1.00;;